KGRB/GRB METAR and TAF weather

Enter ICAO airport designator
Station Type Date Time Source
KGRB METAR 2019/12/06 01:53 UTC NOAA

KGRB 060153Z AUTO 00000KT 9SM BKN042 OVC090 00/M02 A2990 RMK AO2 SLP134 T00001022


Station Type Date Time Source
KGRB Decoded METAR 2019/12/06 01:53 UTC NOAA

AUSTIN STRAUBEL INTERNATIONAL AIRPORT , WI, United States (KGRB) 44-29N 088-08W 205M
Dec 05, 2019 - 08:53 PM EST / 2019.12.06 0153 UTC
Wind: Calm:0
Visibility: 9 mile(s):0
Sky conditions: overcast
Temperature: 32.0 F (0.0 C)
Dew Point: 28.0 F (-2.2 C)
Relative Humidity: 85%
Pressure (altimeter): 29.9 in. Hg (1012 hPa)
ob: KGRB 060153Z AUTO 00000KT 9SM BKN042 OVC090 00/M02 A2990 RMK AO2 SLP134 T00001022
cycle: 2

Station Type Date Time Source
KGRB TAF 2019/12/06 01:58 UTC NOAA

TAF
AMD KGRB 060056Z 0601/0624 15003KT P6SM OVC035
FM060300 28003KT P6SM OVC022
FM060500 32008KT P6SM BKN016
FM060800 33010KT P6SM SCT026
FM061000 33008KT P6SM SCT070

Example: see airport list